Buoy 41730

sailwx.info

Track history (hours):
 
Tides and Currents Weather Stations Pressure Air Temp Water Temp Dewpoint Dewpoint Depression Visibility Wind Speed Wind Dir Waves Ship Positions

Drifting buoy 41730

Last reported at 2018-Jul-16 10:00 UTC. Time now 2018-Jul-16 10:36 UTC.
Position N 37°37' W 033°41'.

Barometer 1032.3 mb

Date/timePositionNaut miles runAvg speedWind from/ knotsBaromVisibWave heightAir tempDewpointWater temp
2018-Jul-16 10:00N 37°37' W 033°41'0 0.0 1032.3
2018-Jul-16 09:00N 37°37' W 033°41'1 0.6 1031.9
2018-Jul-16 08:00N 37°38' W 033°41'0 0.0 1031.6
2018-Jul-16 07:00N 37°38' W 033°41'0 0.5 1031.2
2018-Jul-16 06:00N 37°38' W 033°41'0 0.5 1030.9
2018-Jul-16 05:00N 37°38' W 033°42'0 0.0 1031.0
2018-Jul-16 04:00N 37°38' W 033°42'1 0.8 1031.1
2018-Jul-16 03:00N 37°37' W 033°43'0 0.0 1031.1
2018-Jul-16 02:00N 37°37' W 033°43'1 0.6 1031.3
2018-Jul-16 01:00N 37°37' W 033°43'1 0.6 1031.6
2018-Jul-16 00:00N 37°36' W 033°43'0 0.0 1031.5
2018-Jul-15 23:00N 37°36' W 033°43'0 0.5 1031.2
2018-Jul-15 22:00N 37°36' W 033°42'0 0.0 1030.7
2018-Jul-15 21:00N 37°36' W 033°42'0 0.5 1030.5
2018-Jul-15 20:00N 37°36' W 033°41'0 0.5 1029.9
2018-Jul-15 19:00N 37°36' W 033°41'0 0.0 1029.6
2018-Jul-15 18:00N 37°36' W 033°41'0 0.5 1029.5
2018-Jul-15 17:00N 37°36' W 033°40'1 0.8 1029.5
2018-Jul-15 16:00N 37°37' W 033°41'0 0.0 1029.5
2018-Jul-15 15:00N 37°37' W 033°41'0 0.0 1029.4
2018-Jul-15 14:00N 37°37' W 033°41'0 0.5 1029.6
2018-Jul-15 13:00N 37°37' W 033°41'0 0.0 1029.9
2018-Jul-15 12:00N 37°37' W 033°41'0 0.0 1029.8
2018-Jul-15 11:00N 37°37' W 033°41'1 0.6 1029.6
2018-Jul-15 10:00N 37°37' W 033°41'0 0.0 1029.8
2018-Jul-15 09:00N 37°37' W 033°41'0 0.0 1029.5
2018-Jul-15 08:00N 37°37' W 033°41'0 0.0 1029.1
2018-Jul-15 07:00N 37°37' W 033°41'0 0.5 1029.0
2018-Jul-15 06:00N 37°37' W 033°42'0 0.0 1028.9
2018-Jul-15 05:00N 37°37' W 033°42'0 0.5 1029.0
2018-Jul-15 04:00N 37°37' W 033°43'0 0.5 1029.3
2018-Jul-15 03:00N 37°37' W 033°43'0 0.0 1029.5
2018-Jul-15 02:00N 37°37' W 033°43'1 0.8 1030.1
2018-Jul-15 01:00N 37°37' W 033°44'1 0.8 1030.4
2018-Jul-15 00:00N 37°36' W 033°44'0 0.0 1030.7
2018-Jul-14 23:00N 37°36' W 033°44'0 0.0 1030.7
2018-Jul-14 22:00N 37°36' W 033°44'0 0.5 1030.6
2018-Jul-14 21:00N 37°36' W 033°44'0 0.0 1030.4
2018-Jul-14 20:00N 37°36' W 033°44'0 0.0 1030.2
2018-Jul-14 19:00N 37°36' W 033°44'0 0.0 1030.3
2018-Jul-14 18:00N 37°36' W 033°44'1 0.8 1030.5
2018-Jul-14 17:00N 37°37' W 033°44'0 0.5 1030.7
2018-Jul-14 16:00N 37°37' W 033°45'0 0.0 1030.8
2018-Jul-14 15:00N 37°37' W 033°45'1 0.8 1030.9
2018-Jul-14 14:00N 37°36' W 033°46'0 0.5 1031.3
2018-Jul-14 13:00N 37°36' W 033°46'1 1.3 1031.5
2018-Jul-14 12:00N 37°35' W 033°47'1 0.6 1031.5
2018-Jul-14 11:00N 37°34' W 033°47'1 0.8 1031.4
2018-Jul-14 10:00N 37°34' W 033°46'0 0.5 1031.6
2018-Jul-14 09:00N 37°34' W 033°46'0 0.0 1031.3
2018-Jul-14 08:00N 37°34' W 033°46'0 0.5 1031.1
2018-Jul-14 07:00N 37°34' W 033°45'1 0.8 1030.6
2018-Jul-14 06:00N 37°34' W 033°44'0 0.0 1030.4
2018-Jul-14 05:00N 37°34' W 033°44'1 0.6 1030.6
2018-Jul-14 04:00N 37°35' W 033°44'0 0.5 1031.1
2018-Jul-14 03:00N 37°35' W 033°45'0 0.5 1031.4
2018-Jul-14 02:00N 37°35' W 033°46'1 0.8 1031.6
2018-Jul-14 01:00N 37°34' W 033°46'1 0.6 1032.2
2018-Jul-13 23:00N 37°33' W 033°46'1 0.6 1032.3
2018-Jul-13 22:00N 37°32' W 033°46'1 0.8 1031.8
2018-Jul-13 21:00N 37°32' W 033°46'0 0.5 1031.7
2018-Jul-13 20:00N 37°32' W 033°45'0 0.5 1031.5
2018-Jul-13 19:00N 37°32' W 033°44'1 0.8 1031.8
2018-Jul-13 18:00N 37°32' W 033°44'0 0.0 1031.9
2018-Jul-13 17:00N 37°32' W 033°44'1 0.8 1032.2
2018-Jul-13 16:00N 37°33' W 033°43'0 0.5 1032.6
2018-Jul-13 15:00N 37°33' W 033°44'1 0.8 1032.9
2018-Jul-13 14:00N 37°34' W 033°44'1 0.8 1033.4
2018-Jul-13 13:00N 37°33' W 033°45'1 0.8 1033.5
2018-Jul-13 12:00N 37°32' W 033°46'1 0.8 1033.7
2018-Jul-13 11:00N 37°32' W 033°46'1 0.6 1033.6
2018-Jul-13 10:00N 37°31' W 033°46'1 1.3 1033.7
2018-Jul-13 09:00N 37°30' W 033°46'1 0.8 1033.6
2018-Jul-13 08:00N 37°29' W 033°45'1 1.0 1033.3
2018-Jul-13 07:00N 37°29' W 033°44'0 0.5 1033.4
2018-Jul-13 06:00N 37°29' W 033°43'1 1.1 1033.5
2018-Jul-13 05:00N 37°30' W 033°42'1 0.8 1033.9
2018-Jul-13 04:00N 37°31' W 033°41'1 0.6 1034.3
2018-Jul-13 03:00N 37°31' W 033°41'1 0.8 1034.4
2018-Jul-13 02:00N 37°32' W 033°42'0 0.0 1034.8
2018-Jul-13 01:00N 37°32' W 033°42'1 1.0 1035.4
2018-Jul-13 00:00N 37°32' W 033°43'0 0.5 1035.3
2018-Jul-12 23:00N 37°32' W 033°44'1 1.3 1035.2
2018-Jul-12 22:00N 37°31' W 033°44'1 0.6 1034.9
2018-Jul-12 21:00N 37°30' W 033°44'1 0.6 1034.9
2018-Jul-12 20:00N 37°29' W 033°44'1 1.3 1034.5
2018-Jul-12 19:00N 37°28' W 033°44'0 0.5 1034.6
2018-Jul-12 18:00N 37°28' W 033°43'1 1.0 1034.6
2018-Jul-12 17:00N 37°28' W 033°42'0 0.0 1035.0
2018-Jul-12 16:00N 37°28' W 033°42'1 1.0 1035.1
2018-Jul-12 15:00N 37°28' W 033°41'0 0.0 1035.4
2018-Jul-12 14:00N 37°28' W 033°41'0 0.5 1035.5
2018-Jul-12 13:00N 37°28' W 033°40'0 0.0 1035.5
2018-Jul-12 12:00N 37°28' W 033°40'0 0.0 1035.4
2018-Jul-12 11:00N 37°28' W 033°40'1 0.6 1035.2
2018-Jul-12 10:00N 37°28' W 033°40'1 0.8 1035.2
2018-Jul-12 09:00N 37°27' W 033°40'0 0.5 1034.8
2018-Jul-12 08:00N 37°27' W 033°39'0 0.5 1034.7
2018-Jul-12 07:00N 37°27' W 033°38'1 1.0 1034.5
2018-Jul-12 06:00N 37°27' W 033°37'1 1.1 1034.4
2018-Jul-12 05:00N 37°28' W 033°36'1 1.1 1034.6
2018-Jul-12 04:00N 37°28' W 033°35'1 1.2 1034.7
2018-Jul-12 03:00N 37°29' W 033°35'1 0.6 1034.9
2018-Jul-12 02:00N 37°30' W 033°35'0 0.5 1035.1
2018-Jul-12 01:00N 37°30' W 033°35'0 0.5 1035.5
2018-Jul-12 00:00N 37°30' W 033°36'0 0.5 1035.7
2018-Jul-11 23:00N 37°30' W 033°37'1 0.8 1035.4
2018-Jul-11 22:00N 37°29' W 033°37'1 0.6 1035.0
2018-Jul-11 21:00N 37°29' W 033°37'1 0.6 1034.9
2018-Jul-11 20:00N 37°28' W 033°37'1 0.8 1034.6
2018-Jul-11 19:00N 37°28' W 033°37'1 0.8 1034.4
2018-Jul-11 18:00N 37°27' W 033°36'0 0.5 1034.4
2018-Jul-11 17:00N 37°27' W 033°35'0 0.5 1034.4
2018-Jul-11 16:00N 37°27' W 033°35'1 1.1 1034.3
2018-Jul-11 15:00N 37°28' W 033°34'0 0.5 1034.3
2018-Jul-11 14:00N 37°28' W 033°33'1 0.6 1034.3
2018-Jul-11 13:00N 37°28' W 033°33'0 0.5 1034.3
2018-Jul-11 12:00N 37°28' W 033°34'1 0.3 1034.3
2018-Jul-11 10:00N 37°28' W 033°34'1 0.6 1033.7
2018-Jul-11 09:00N 37°27' W 033°34'1 0.8 1033.3
2018-Jul-11 08:00N 37°26' W 033°34'0 0.5 1033.0
2018-Jul-11 07:00N 37°26' W 033°34'1 0.8 1032.5
2018-Jul-11 06:00N 37°26' W 033°33'0 0.5 1032.1
2018-Jul-11 05:00N 37°26' W 033°32'0 0.5 1032.1
2018-Jul-11 04:00N 37°26' W 033°32'1 0.8 1032.1
2018-Jul-11 03:00N 37°26' W 033°31'0 0.5 1032.4
2018-Jul-11 02:00N 37°26' W 033°31'0 0.5 1032.7
2018-Jul-11 01:00N 37°26' W 033°30'1 0.5 1032.8
2018-Jul-10 23:00N 37°26' W 033°29'0 0.0 1032.3
2018-Jul-10 22:00N 37°26' W 033°29'1 0.6 1031.5
2018-Jul-10 21:00N 37°27' W 033°29'0 0.0 1031.3
2018-Jul-10 20:00N 37°27' W 033°29'1 0.6 1031.1
2018-Jul-10 19:00N 37°26' W 033°29'0 0.0 1030.9
2018-Jul-10 18:00N 37°26' W 033°29'0 0.0 1030.8
2018-Jul-10 16:00N 37°26' W 033°29'0 0.5 1030.7
2018-Jul-10 15:00N 37°26' W 033°28'1 0.4 1030.5
2018-Jul-10 13:00N 37°26' W 033°28'0 0.0 1030.4
2018-Jul-10 12:00N 37°26' W 033°28'0 0.5 1030.3
2018-Jul-10 11:00N 37°26' W 033°27'1 1.1 1029.9
2018-Jul-10 10:00N 37°25' W 033°26'0 0.5 1029.7
2018-Jul-10 09:00N 37°25' W 033°25'0 0.5 1029.1
2018-Jul-10 08:00N 37°25' W 033°25'1 1.0 1028.5
2018-Jul-10 07:00N 37°25' W 033°23'1 0.8 1028.1
2018-Jul-10 06:00N 37°26' W 033°23'1 0.8 1027.6
2018-Jul-10 05:00N 37°26' W 033°22'0 0.5 1027.7
2018-Jul-10 04:00N 37°26' W 033°22'1 0.6 1027.6
2018-Jul-10 03:00N 37°27' W 033°22'0 0.0 1027.6
2018-Jul-10 02:00N 37°27' W 033°22'1 0.6 1027.6
2018-Jul-10 01:00N 37°28' W 033°22'0 0.0 1027.9
2018-Jul-10 00:00N 37°28' W 033°22'1 0.8 1027.7
2018-Jul-09 23:00N 37°27' W 033°21'0 0.0 1027.5
2018-Jul-09 22:00N 37°27' W 033°21'0 0.5 1026.8
2018-Jul-09 21:00N 37°27' W 033°20'0 0.0 1026.4
2018-Jul-09 20:00N 37°27' W 033°20'0 0.5 1026.0
2018-Jul-09 19:00N 37°27' W 033°20'0 0.5 1025.6
2018-Jul-09 18:00N 37°27' W 033°19'1 1.0 1025.5
2018-Jul-09 17:00N 37°27' W 033°18'0 0.0 1025.6
2018-Jul-09 16:00N 37°27' W 033°18'0 0.5 1025.7
2018-Jul-09 15:00N 37°27' W 033°17'0 0.5 1025.5
2018-Jul-09 14:00N 37°27' W 033°17'0 0.5 1025.7
2018-Jul-09 13:00N 37°27' W 033°16'0 0.0 1025.8
2018-Jul-09 12:00N 37°27' W 033°16'0 0.0 1025.7
2018-Jul-09 11:00N 37°27' W 033°16'0 0.0 1025.3
2018-Jul-09 09:00N 37°27' W 033°16'0 0.5 1024.6
2018-Jul-09 08:00N 37°27' W 033°16'0 0.0 1024.4
2018-Jul-09 07:00N 37°27' W 033°16'0 0.5 1024.1
2018-Jul-09 06:00N 37°27' W 033°15'0 0.5 1023.8
2018-Jul-09 05:00N 37°27' W 033°14'0 0.5 1023.7
2018-Jul-09 04:00N 37°27' W 033°14'1 1.0 1023.8
2018-Jul-09 03:00N 37°27' W 033°13'0 0.5 1023.7
2018-Jul-09 02:00N 37°27' W 033°12'1 0.8 1023.8
2018-Jul-09 01:00N 37°28' W 033°11'0 0.5 1024.1
2018-Jul-09 00:00N 37°28' W 033°11'1 0.6 1024.3
2018-Jul-08 23:00N 37°28' W 033°11'0 0.0 1024.2
2018-Jul-08 22:00N 37°28' W 033°11'1 0.6 1023.6
2018-Jul-08 21:00N 37°29' W 033°11'0 0.0 1023.2
2018-Jul-08 20:00N 37°29' W 033°11'0 0.0 1023.0
2018-Jul-08 19:00N 37°29' W 033°11'0 0.0 1022.9
2018-Jul-08 18:00N 37°29' W 033°11'0 0.0 1023.3
2018-Jul-08 17:00N 37°29' W 033°11'0 0.0 1023.4
2018-Jul-08 16:00N 37°29' W 033°11'2 0.8 1023.7
2018-Jul-08 14:00N 37°28' W 033°09'1 1.0 1024.3
2018-Jul-08 13:00N 37°28' W 033°08'0 0.5 1024.6
2018-Jul-08 12:00N 37°28' W 033°07'1 1.1 1024.5
2018-Jul-08 11:00N 37°29' W 033°06'1 0.8 1024.4
2018-Jul-08 10:00N 37°29' W 033°05'1 0.8 1024.1
2018-Jul-08 09:00N 37°30' W 033°05'0 0.0 1024.0
2018-Jul-08 08:00N 37°30' W 033°05'0 0.0 1023.5
2018-Jul-08 07:00N 37°30' W 033°05'1 0.6 1023.4
2018-Jul-08 06:00N 37°31' W 033°05'0 0.0 1023.3
2018-Jul-08 05:00N 37°31' W 033°05'0 0.0 1023.8
2018-Jul-08 04:00N 37°31' W 033°05'0 0.0 1023.9
2018-Jul-08 03:00N 37°31' W 033°05'0 0.2 1024.1
2018-Jul-08 01:00N 37°31' W 033°04'0 0.5 1024.7
2018-Jul-08 00:00N 37°31' W 033°04'0 0.5 1024.8
2018-Jul-07 23:00N 37°31' W 033°03'0 0.0 1024.6
2018-Jul-07 22:00N 37°31' W 033°03'0 0.5 1024.1
2018-Jul-07 21:00N 37°31' W 033°02'0 0.5 1023.6
2018-Jul-07 20:00N 37°31' W 033°02'1 0.8 1023.4
2018-Jul-07 19:00N 37°30' W 033°01'0 0.5 1023.6
2018-Jul-07 18:00N 37°30' W 033°01'0 0.0 1023.6
2018-Jul-07 17:00N 37°30' W 033°01'1 1.0 1023.5
2018-Jul-07 16:00N 37°30' W 032°59'0 0.5 1023.5
2018-Jul-07 15:00N 37°30' W 032°59'1 0.8 1023.4
2018-Jul-07 14:00N 37°31' W 032°58'0 0.5 1023.2
2018-Jul-07 13:00N 37°31' W 032°58'1 0.8 1023.1
2018-Jul-07 12:00N 37°31' W 032°57'0 0.0 1023.1
2018-Jul-07 11:00N 37°31' W 032°57'1 0.8 1022.8
2018-Jul-07 10:00N 37°32' W 032°56'0 0.0 1022.7
2018-Jul-07 09:00N 37°32' W 032°56'0 0.0 1022.6
2018-Jul-07 08:00N 37°32' W 032°56'0 0.5 1022.8
2018-Jul-07 07:00N 37°32' W 032°57'0 0.0 1021.9
2018-Jul-07 06:00N 37°32' W 032°57'0 0.0 1021.7
2018-Jul-07 05:00N 37°32' W 032°57'0 0.0 1022.1
2018-Jul-07 04:00N 37°32' W 032°57'0 0.0 1022.5
2018-Jul-07 03:00N 37°32' W 032°57'0 0.5 1022.9
2018-Jul-07 02:00N 37°32' W 032°58'1 0.6 1023.3
2018-Jul-07 01:00N 37°32' W 032°58'0 0.5 1023.8
2018-Jul-07 00:00N 37°32' W 032°58'0 0.0 1024.4
2018-Jul-06 23:00N 37°32' W 032°58'0 0.5 1024.5
2018-Jul-06 22:00N 37°32' W 032°59'1 0.6 1024.2
2018-Jul-06 21:00N 37°32' W 032°59'0 0.0 1024.2
2018-Jul-06 20:00N 37°32' W 032°59'0 0.0 1024.2
2018-Jul-06 19:00N 37°32' W 032°59'1 0.6 1024.3
2018-Jul-06 18:00N 37°31' W 032°59'0 0.0 1024.6
2018-Jul-06 17:00N 37°31' W 032°59'1 0.6 1024.8
2018-Jul-06 16:00N 37°32' W 032°59'0 0.0 1025.1
2018-Jul-06 15:00N 37°32' W 032°59'0 0.0 1025.5
2018-Jul-06 14:00N 37°32' W 032°59'0 0.0 1026.0
2018-Jul-06 13:00N 37°32' W 032°59'1 0.6 1026.3
2018-Jul-06 12:00N 37°32' W 032°59'0 0.0 1026.7
2018-Jul-06 11:00N 37°32' W 032°59'0 0.5 1026.4
2018-Jul-06 10:00N 37°32' W 032°59'   1026.8
Track history (hours):
 
Tides and Currents Weather Stations Pressure Air Temp Water Temp Dewpoint Dewpoint Depression Visibility Wind Speed Wind Dir Waves Ship Positions

Drifting buoy 41730

Last reported at 2018-Jul-16 10:00 UTC. Time now 2018-Jul-16 10:36 UTC.
Position N 37°37' W 033°41'.

Barometer 1032.3 mb

Date/timePositionNaut miles runAvg speedWind from/ knotsBaromVisibWave heightAir tempDewpointWater temp
2018-Jul-16 10:00N 37°37' W 033°41'0 0.0 1032.3
2018-Jul-16 09:00N 37°37' W 033°41'1 0.6 1031.9
2018-Jul-16 08:00N 37°38' W 033°41'0 0.0 1031.6
2018-Jul-16 07:00N 37°38' W 033°41'0 0.5 1031.2
2018-Jul-16 06:00N 37°38' W 033°41'0 0.5 1030.9
2018-Jul-16 05:00N 37°38' W 033°42'0 0.0 1031.0
2018-Jul-16 04:00N 37°38' W 033°42'1 0.8 1031.1
2018-Jul-16 03:00N 37°37' W 033°43'0 0.0 1031.1
2018-Jul-16 02:00N 37°37' W 033°43'1 0.6 1031.3
2018-Jul-16 01:00N 37°37' W 033°43'1 0.6 1031.6
2018-Jul-16 00:00N 37°36' W 033°43'0 0.0 1031.5
2018-Jul-15 23:00N 37°36' W 033°43'0 0.5 1031.2
2018-Jul-15 22:00N 37°36' W 033°42'0 0.0 1030.7
2018-Jul-15 21:00N 37°36' W 033°42'0 0.5 1030.5
2018-Jul-15 20:00N 37°36' W 033°41'0 0.5 1029.9
2018-Jul-15 19:00N 37°36' W 033°41'0 0.0 1029.6
2018-Jul-15 18:00N 37°36' W 033°41'0 0.5 1029.5
2018-Jul-15 17:00N 37°36' W 033°40'1 0.8 1029.5
2018-Jul-15 16:00N 37°37' W 033°41'0 0.0 1029.5
2018-Jul-15 15:00N 37°37' W 033°41'0 0.0 1029.4
2018-Jul-15 14:00N 37°37' W 033°41'0 0.5 1029.6
2018-Jul-15 13:00N 37°37' W 033°41'0 0.0 1029.9
2018-Jul-15 12:00N 37°37' W 033°41'0 0.0 1029.8
2018-Jul-15 11:00N 37°37' W 033°41'1 0.6 1029.6
2018-Jul-15 10:00N 37°37' W 033°41'0 0.0 1029.8
2018-Jul-15 09:00N 37°37' W 033°41'0 0.0 1029.5
2018-Jul-15 08:00N 37°37' W 033°41'0 0.0 1029.1
2018-Jul-15 07:00N 37°37' W 033°41'0 0.5 1029.0
2018-Jul-15 06:00N 37°37' W 033°42'0 0.0 1028.9
2018-Jul-15 05:00N 37°37' W 033°42'0 0.5 1029.0
2018-Jul-15 04:00N 37°37' W 033°43'0 0.5 1029.3
2018-Jul-15 03:00N 37°37' W 033°43'0 0.0 1029.5
2018-Jul-15 02:00N 37°37' W 033°43'1 0.8 1030.1
2018-Jul-15 01:00N 37°37' W 033°44'1 0.8 1030.4
2018-Jul-15 00:00N 37°36' W 033°44'0 0.0 1030.7
2018-Jul-14 23:00N 37°36' W 033°44'0 0.0 1030.7
2018-Jul-14 22:00N 37°36' W 033°44'0 0.5 1030.6
2018-Jul-14 21:00N 37°36' W 033°44'0 0.0 1030.4
2018-Jul-14 20:00N 37°36' W 033°44'0 0.0 1030.2
2018-Jul-14 19:00N 37°36' W 033°44'0 0.0 1030.3
2018-Jul-14 18:00N 37°36' W 033°44'1 0.8 1030.5
2018-Jul-14 17:00N 37°37' W 033°44'0 0.5 1030.7
2018-Jul-14 16:00N 37°37' W 033°45'0 0.0 1030.8
2018-Jul-14 15:00N 37°37' W 033°45'1 0.8 1030.9
2018-Jul-14 14:00N 37°36' W 033°46'0 0.5 1031.3
2018-Jul-14 13:00N 37°36' W 033°46'1 1.3 1031.5
2018-Jul-14 12:00N 37°35' W 033°47'1 0.6 1031.5
2018-Jul-14 11:00N 37°34' W 033°47'1 0.8 1031.4
2018-Jul-14 10:00N 37°34' W 033°46'0 0.5 1031.6
2018-Jul-14 09:00N 37°34' W 033°46'0 0.0 1031.3
2018-Jul-14 08:00N 37°34' W 033°46'0 0.5 1031.1
2018-Jul-14 07:00N 37°34' W 033°45'1 0.8 1030.6
2018-Jul-14 06:00N 37°34' W 033°44'0 0.0 1030.4
2018-Jul-14 05:00N 37°34' W 033°44'1 0.6 1030.6
2018-Jul-14 04:00N 37°35' W 033°44'0 0.5 1031.1
2018-Jul-14 03:00N 37°35' W 033°45'0 0.5 1031.4
2018-Jul-14 02:00N 37°35' W 033°46'1 0.8 1031.6
2018-Jul-14 01:00N 37°34' W 033°46'1 0.6 1032.2
2018-Jul-13 23:00N 37°33' W 033°46'1 0.6 1032.3
2018-Jul-13 22:00N 37°32' W 033°46'1 0.8 1031.8
2018-Jul-13 21:00N 37°32' W 033°46'0 0.5 1031.7
2018-Jul-13 20:00N 37°32' W 033°45'0 0.5 1031.5
2018-Jul-13 19:00N 37°32' W 033°44'1 0.8 1031.8
2018-Jul-13 18:00N 37°32' W 033°44'0 0.0 1031.9
2018-Jul-13 17:00N 37°32' W 033°44'1 0.8 1032.2
2018-Jul-13 16:00N 37°33' W 033°43'0 0.5 1032.6
2018-Jul-13 15:00N 37°33' W 033°44'1 0.8 1032.9
2018-Jul-13 14:00N 37°34' W 033°44'1 0.8 1033.4
2018-Jul-13 13:00N 37°33' W 033°45'1 0.8 1033.5
2018-Jul-13 12:00N 37°32' W 033°46'1 0.8 1033.7
2018-Jul-13 11:00N 37°32' W 033°46'1 0.6 1033.6
2018-Jul-13 10:00N 37°31' W 033°46'1 1.3 1033.7
2018-Jul-13 09:00N 37°30' W 033°46'1 0.8 1033.6
2018-Jul-13 08:00N 37°29' W 033°45'1 1.0 1033.3
2018-Jul-13 07:00N 37°29' W 033°44'0 0.5 1033.4
2018-Jul-13 06:00N 37°29' W 033°43'1 1.1 1033.5
2018-Jul-13 05:00N 37°30' W 033°42'1 0.8 1033.9
2018-Jul-13 04:00N 37°31' W 033°41'1 0.6 1034.3
2018-Jul-13 03:00N 37°31' W 033°41'1 0.8 1034.4
2018-Jul-13 02:00N 37°32' W 033°42'0 0.0 1034.8
2018-Jul-13 01:00N 37°32' W 033°42'1 1.0 1035.4
2018-Jul-13 00:00N 37°32' W 033°43'0 0.5 1035.3
2018-Jul-12 23:00N 37°32' W 033°44'1 1.3 1035.2
2018-Jul-12 22:00N 37°31' W 033°44'1 0.6 1034.9
2018-Jul-12 21:00N 37°30' W 033°44'1 0.6 1034.9
2018-Jul-12 20:00N 37°29' W 033°44'1 1.3 1034.5
2018-Jul-12 19:00N 37°28' W 033°44'0 0.5 1034.6
2018-Jul-12 18:00N 37°28' W 033°43'1 1.0 1034.6
2018-Jul-12 17:00N 37°28' W 033°42'0 0.0 1035.0
2018-Jul-12 16:00N 37°28' W 033°42'1 1.0 1035.1
2018-Jul-12 15:00N 37°28' W 033°41'0 0.0 1035.4
2018-Jul-12 14:00N 37°28' W 033°41'0 0.5 1035.5
2018-Jul-12 13:00N 37°28' W 033°40'0 0.0 1035.5
2018-Jul-12 12:00N 37°28' W 033°40'0 0.0 1035.4
2018-Jul-12 11:00N 37°28' W 033°40'1 0.6 1035.2
2018-Jul-12 10:00N 37°28' W 033°40'1 0.8 1035.2
2018-Jul-12 09:00N 37°27' W 033°40'0 0.5 1034.8
2018-Jul-12 08:00N 37°27' W 033°39'0 0.5 1034.7
2018-Jul-12 07:00N 37°27' W 033°38'1 1.0 1034.5
2018-Jul-12 06:00N 37°27' W 033°37'1 1.1 1034.4
2018-Jul-12 05:00N 37°28' W 033°36'1 1.1 1034.6
2018-Jul-12 04:00N 37°28' W 033°35'1 1.2 1034.7
2018-Jul-12 03:00N 37°29' W 033°35'1 0.6 1034.9
2018-Jul-12 02:00N 37°30' W 033°35'0 0.5 1035.1
2018-Jul-12 01:00N 37°30' W 033°35'0 0.5 1035.5
2018-Jul-12 00:00N 37°30' W 033°36'0 0.5 1035.7
2018-Jul-11 23:00N 37°30' W 033°37'1 0.8 1035.4
2018-Jul-11 22:00N 37°29' W 033°37'1 0.6 1035.0
2018-Jul-11 21:00N 37°29' W 033°37'1 0.6 1034.9
2018-Jul-11 20:00N 37°28' W 033°37'1 0.8 1034.6
2018-Jul-11 19:00N 37°28' W 033°37'1 0.8 1034.4
2018-Jul-11 18:00N 37°27' W 033°36'0 0.5 1034.4
2018-Jul-11 17:00N 37°27' W 033°35'0 0.5 1034.4
2018-Jul-11 16:00N 37°27' W 033°35'1 1.1 1034.3
2018-Jul-11 15:00N 37°28' W 033°34'0 0.5 1034.3
2018-Jul-11 14:00N 37°28' W 033°33'1 0.6 1034.3
2018-Jul-11 13:00N 37°28' W 033°33'0 0.5 1034.3
2018-Jul-11 12:00N 37°28' W 033°34'1 0.3 1034.3
2018-Jul-11 10:00N 37°28' W 033°34'1 0.6 1033.7
2018-Jul-11 09:00N 37°27' W 033°34'1 0.8 1033.3
2018-Jul-11 08:00N 37°26' W 033°34'0 0.5 1033.0
2018-Jul-11 07:00N 37°26' W 033°34'1 0.8 1032.5
2018-Jul-11 06:00N 37°26' W 033°33'0 0.5 1032.1
2018-Jul-11 05:00N 37°26' W 033°32'0 0.5 1032.1
2018-Jul-11 04:00N 37°26' W 033°32'1 0.8 1032.1
2018-Jul-11 03:00N 37°26' W 033°31'0 0.5 1032.4
2018-Jul-11 02:00N 37°26' W 033°31'0 0.5 1032.7
2018-Jul-11 01:00N 37°26' W 033°30'1 0.5 1032.8
2018-Jul-10 23:00N 37°26' W 033°29'0 0.0 1032.3
2018-Jul-10 22:00N 37°26' W 033°29'1 0.6 1031.5
2018-Jul-10 21:00N 37°27' W 033°29'0 0.0 1031.3
2018-Jul-10 20:00N 37°27' W 033°29'1 0.6 1031.1
2018-Jul-10 19:00N 37°26' W 033°29'0 0.0 1030.9
2018-Jul-10 18:00N 37°26' W 033°29'0 0.0 1030.8
2018-Jul-10 16:00N 37°26' W 033°29'0 0.5 1030.7
2018-Jul-10 15:00N 37°26' W 033°28'1 0.4 1030.5
2018-Jul-10 13:00N 37°26' W 033°28'0 0.0 1030.4
2018-Jul-10 12:00N 37°26' W 033°28'0 0.5 1030.3
2018-Jul-10 11:00N 37°26' W 033°27'1 1.1 1029.9
2018-Jul-10 10:00N 37°25' W 033°26'0 0.5 1029.7
2018-Jul-10 09:00N 37°25' W 033°25'0 0.5 1029.1
2018-Jul-10 08:00N 37°25' W 033°25'1 1.0 1028.5
2018-Jul-10 07:00N 37°25' W 033°23'1 0.8 1028.1
2018-Jul-10 06:00N 37°26' W 033°23'1 0.8 1027.6
2018-Jul-10 05:00N 37°26' W 033°22'0 0.5 1027.7
2018-Jul-10 04:00N 37°26' W 033°22'1 0.6 1027.6
2018-Jul-10 03:00N 37°27' W 033°22'0 0.0 1027.6
2018-Jul-10 02:00N 37°27' W 033°22'1 0.6 1027.6
2018-Jul-10 01:00N 37°28' W 033°22'0 0.0 1027.9
2018-Jul-10 00:00N 37°28' W 033°22'1 0.8 1027.7
2018-Jul-09 23:00N 37°27' W 033°21'0 0.0 1027.5
2018-Jul-09 22:00N 37°27' W 033°21'0 0.5 1026.8
2018-Jul-09 21:00N 37°27' W 033°20'0 0.0 1026.4
2018-Jul-09 20:00N 37°27' W 033°20'0 0.5 1026.0
2018-Jul-09 19:00N 37°27' W 033°20'0 0.5 1025.6
2018-Jul-09 18:00N 37°27' W 033°19'1 1.0 1025.5
2018-Jul-09 17:00N 37°27' W 033°18'0 0.0 1025.6
2018-Jul-09 16:00N 37°27' W 033°18'0 0.5 1025.7
2018-Jul-09 15:00N 37°27' W 033°17'0 0.5 1025.5
2018-Jul-09 14:00N 37°27' W 033°17'0 0.5 1025.7
2018-Jul-09 13:00N 37°27' W 033°16'0 0.0 1025.8
2018-Jul-09 12:00N 37°27' W 033°16'0 0.0 1025.7
2018-Jul-09 11:00N 37°27' W 033°16'0 0.0 1025.3
2018-Jul-09 09:00N 37°27' W 033°16'0 0.5 1024.6
2018-Jul-09 08:00N 37°27' W 033°16'0 0.0 1024.4
2018-Jul-09 07:00N 37°27' W 033°16'0 0.5 1024.1
2018-Jul-09 06:00N 37°27' W 033°15'0 0.5 1023.8
2018-Jul-09 05:00N 37°27' W 033°14'0 0.5 1023.7
2018-Jul-09 04:00N 37°27' W 033°14'1 1.0 1023.8
2018-Jul-09 03:00N 37°27' W 033°13'0 0.5 1023.7
2018-Jul-09 02:00N 37°27' W 033°12'1 0.8 1023.8
2018-Jul-09 01:00N 37°28' W 033°11'0 0.5 1024.1
2018-Jul-09 00:00N 37°28' W 033°11'1 0.6 1024.3
2018-Jul-08 23:00N 37°28' W 033°11'0 0.0 1024.2
2018-Jul-08 22:00N 37°28' W 033°11'1 0.6 1023.6
2018-Jul-08 21:00N 37°29' W 033°11'0 0.0 1023.2
2018-Jul-08 20:00N 37°29' W 033°11'0 0.0 1023.0
2018-Jul-08 19:00N 37°29' W 033°11'0 0.0 1022.9
2018-Jul-08 18:00N 37°29' W 033°11'0 0.0 1023.3
2018-Jul-08 17:00N 37°29' W 033°11'0 0.0 1023.4
2018-Jul-08 16:00N 37°29' W 033°11'2 0.8 1023.7
2018-Jul-08 14:00N 37°28' W 033°09'1 1.0 1024.3
2018-Jul-08 13:00N 37°28' W 033°08'0 0.5 1024.6
2018-Jul-08 12:00N 37°28' W 033°07'1 1.1 1024.5
2018-Jul-08 11:00N 37°29' W 033°06'1 0.8 1024.4
2018-Jul-08 10:00N 37°29' W 033°05'1 0.8 1024.1
2018-Jul-08 09:00N 37°30' W 033°05'0 0.0 1024.0
2018-Jul-08 08:00N 37°30' W 033°05'0 0.0 1023.5
2018-Jul-08 07:00N 37°30' W 033°05'1 0.6 1023.4
2018-Jul-08 06:00N 37°31' W 033°05'0 0.0 1023.3
2018-Jul-08 05:00N 37°31' W 033°05'0 0.0 1023.8
2018-Jul-08 04:00N 37°31' W 033°05'0 0.0 1023.9
2018-Jul-08 03:00N 37°31' W 033°05'0 0.2 1024.1
2018-Jul-08 01:00N 37°31' W 033°04'0 0.5 1024.7
2018-Jul-08 00:00N 37°31' W 033°04'0 0.5 1024.8
2018-Jul-07 23:00N 37°31' W 033°03'0 0.0 1024.6
2018-Jul-07 22:00N 37°31' W 033°03'0 0.5 1024.1
2018-Jul-07 21:00N 37°31' W 033°02'0 0.5 1023.6
2018-Jul-07 20:00N 37°31' W 033°02'1 0.8 1023.4
2018-Jul-07 19:00N 37°30' W 033°01'0 0.5 1023.6
2018-Jul-07 18:00N 37°30' W 033°01'0 0.0 1023.6
2018-Jul-07 17:00N 37°30' W 033°01'1 1.0 1023.5
2018-Jul-07 16:00N 37°30' W 032°59'0 0.5 1023.5
2018-Jul-07 15:00N 37°30' W 032°59'1 0.8 1023.4
2018-Jul-07 14:00N 37°31' W 032°58'0 0.5 1023.2
2018-Jul-07 13:00N 37°31' W 032°58'1 0.8 1023.1
2018-Jul-07 12:00N 37°31' W 032°57'0 0.0 1023.1
2018-Jul-07 11:00N 37°31' W 032°57'1 0.8 1022.8
2018-Jul-07 10:00N 37°32' W 032°56'0 0.0 1022.7
2018-Jul-07 09:00N 37°32' W 032°56'0 0.0 1022.6
2018-Jul-07 08:00N 37°32' W 032°56'0 0.5 1022.8
2018-Jul-07 07:00N 37°32' W 032°57'0 0.0 1021.9
2018-Jul-07 06:00N 37°32' W 032°57'0 0.0 1021.7
2018-Jul-07 05:00N 37°32' W 032°57'0 0.0 1022.1
2018-Jul-07 04:00N 37°32' W 032°57'0 0.0 1022.5
2018-Jul-07 03:00N 37°32' W 032°57'0 0.5 1022.9
2018-Jul-07 02:00N 37°32' W 032°58'1 0.6 1023.3
2018-Jul-07 01:00N 37°32' W 032°58'0 0.5 1023.8
2018-Jul-07 00:00N 37°32' W 032°58'0 0.0 1024.4
2018-Jul-06 23:00N 37°32' W 032°58'0 0.5 1024.5
2018-Jul-06 22:00N 37°32' W 032°59'1 0.6 1024.2
2018-Jul-06 21:00N 37°32' W 032°59'0 0.0 1024.2
2018-Jul-06 20:00N 37°32' W 032°59'0 0.0 1024.2
2018-Jul-06 19:00N 37°32' W 032°59'1 0.6 1024.3
2018-Jul-06 18:00N 37°31' W 032°59'0 0.0 1024.6
2018-Jul-06 17:00N 37°31' W 032°59'1 0.6 1024.8
2018-Jul-06 16:00N 37°32' W 032°59'0 0.0 1025.1
2018-Jul-06 15:00N 37°32' W 032°59'0 0.0 1025.5
2018-Jul-06 14:00N 37°32' W 032°59'0 0.0 1026.0
2018-Jul-06 13:00N 37°32' W 032°59'1 0.6 1026.3
2018-Jul-06 12:00N 37°32' W 032°59'0 0.0 1026.7
2018-Jul-06 11:00N 37°32' W 032°59'0 0.5 1026.4
2018-Jul-06 10:00N 37°32' W 032°59'   1026.8

Dump ship's entire track history